Time;durP1;ratioP1;P1;durP2;ratioP2;P2;SDS_P1;SDS_P2;PMS_P1;PMS_P2;Temp;Humidity;BMP_temperature;BMP_pressure;BME280_temperature;BME280_humidity;BME280_pressure;Samples;Min_cycle;Max_cycle;Signal;HPM_P1;HPM_P2
2021/03/19 00:00:26;;;;;;;0.75;0.75;;;4.30;99.90;;;;;;4985002;28;20047;-86
2021/03/19 00:02:53;;;;;;;0.38;0.38;;;4.30;99.90;;;;;;4987412;28;20568;-86
2021/03/19 00:05:20;;;;;;;;;;;4.30;99.90;;;;;;4987851;28;20041;-86
2021/03/19 00:07:54;;;;;;;0.82;0.80;;;4.30;99.90;;;;;;4981256;28;19914;-86
2021/03/19 00:10:26;;;;;;;1.75;1.65;;;4.40;99.90;;;;;;4985845;28;20391;-86
2021/03/19 00:12:54;;;;;;;0.60;0.60;;;4.30;99.90;;;;;;4982948;28;20384;-86
2021/03/19 00:15:25;;;;;;;0.25;0.25;;;4.20;99.90;;;;;;4986887;28;20047;-86
2021/03/19 00:17:51;;;;;;;0.10;0.10;;;4.20;99.90;;;;;;4979067;28;20034;-86
2021/03/19 00:20:17;;;;;;;0.30;0.30;;;4.40;99.90;;;;;;4987519;28;20018;-86
2021/03/19 00:22:43;;;;;;;1.23;1.13;;;4.40;99.90;;;;;;4983157;28;20281;-86
2021/03/19 00:25:10;;;;;;;0.38;0.38;;;4.30;99.90;;;;;;4985784;28;20034;-86
2021/03/19 00:27:37;;;;;;;0.10;0.10;;;4.10;99.90;;;;;;4987282;28;20066;-85
2021/03/19 00:30:06;;;;;;;0.90;0.90;;;4.00;99.90;;;;;;4988044;28;20077;-86
2021/03/19 00:32:32;;;;;;;0.30;0.30;;;4.00;99.90;;;;;;4984811;28;20038;-86
2021/03/19 00:34:57;;;;;;;17.05;1.33;;;4.00;99.90;;;;;;4984613;28;20029;-86
2021/03/19 00:37:23;;;;;;;0.30;0.30;;;4.00;99.90;;;;;;4985996;28;20077;-86
2021/03/19 00:39:49;;;;;;;0.50;0.50;;;4.10;99.90;;;;;;4980365;28;20053;-85
2021/03/19 00:42:15;;;;;;;0.10;0.10;;;4.10;99.90;;;;;;4980556;28;20037;-85
2021/03/19 00:44:41;;;;;;;4.45;1.65;;;4.00;99.90;;;;;;4976735;28;20573;-85
2021/03/19 00:47:08;;;;;;;0.15;0.15;;;4.10;99.90;;;;;;4985596;28;20521;-85
2021/03/19 00:49:34;;;;;;;0.10;0.10;;;4.10;99.90;;;;;;4989393;28;20117;-86
2021/03/19 00:52:00;;;;;;;1.38;0.40;;;4.10;99.90;;;;;;4981080;28;20049;-86
2021/03/19 00:54:26;;;;;;;0.10;0.10;;;4.20;99.90;;;;;;4987391;28;20042;-86
2021/03/19 00:56:52;;;;;;;0.40;0.40;;;4.40;99.90;;;;;;4988794;28;20726;-86
2021/03/19 00:59:17;;;;;;;0.30;0.30;;;4.40;99.90;;;;;;4986718;28;20407;-86
2021/03/19 01:01:43;;;;;;;0.17;0.17;;;4.50;99.90;;;;;;4979526;28;20035;-85
2021/03/19 01:04:09;;;;;;;1.35;0.77;;;4.40;99.90;;;;;;4978812;28;20113;-85
2021/03/19 01:06:35;;;;;;;4.53;1.10;;;4.30;99.90;;;;;;4982773;28;20499;-85
2021/03/19 01:09:00;;;;;;;0.22;0.22;;;4.50;99.90;;;;;;4986768;28;20427;-85
2021/03/19 01:11:28;;;;;;;0.50;0.50;;;4.60;99.90;;;;;;4978538;28;20034;-85
2021/03/19 01:13:53;;;;;;;;;;;4.50;99.90;;;;;;4978508;28;20037;-85
2021/03/19 01:16:20;;;;;;;0.40;0.40;;;4.50;99.90;;;;;;4982903;28;20396;-85
2021/03/19 01:18:46;;;;;;;0.45;0.45;;;4.60;99.90;;;;;;4984548;28;20072;-85
2021/03/19 01:21:13;;;;;;;0.10;0.10;;;4.50;99.90;;;;;;4981493;28;20570;-85
2021/03/19 01:23:39;;;;;;;;;;;4.50;99.90;;;;;;4981313;28;20054;-85
2021/03/19 01:26:05;;;;;;;0.20;0.20;;;4.50;99.90;;;;;;4984343;28;20003;-85
2021/03/19 01:28:31;;;;;;;1.80;0.38;;;4.30;99.90;;;;;;4987881;28;20475;-85
2021/03/19 01:30:57;;;;;;;0.13;0.13;;;4.30;99.90;;;;;;4982612;28;20491;-85
2021/03/19 01:33:23;;;;;;;0.20;0.20;;;4.30;99.90;;;;;;4986772;28;20072;-85
2021/03/19 01:35:49;;;;;;;0.10;0.10;;;4.30;99.90;;;;;;4982977;28;20483;-85
2021/03/19 01:38:14;;;;;;;0.30;0.30;;;4.40;99.90;;;;;;4991179;28;20054;-85
2021/03/19 01:40:47;;;;;;;0.40;0.40;;;4.30;99.90;;;;;;4986401;28;20034;-85
2021/03/19 01:43:25;;;;;;;4.90;0.75;;;4.30;99.90;;;;;;4986640;28;20023;-85
2021/03/19 01:46:22;;;;;;;0.10;0.10;;;4.20;99.90;;;;;;4990335;28;20034;-85
2021/03/19 01:49:26;;;;;;;0.20;0.20;;;4.30;99.90;;;;;;4988843;28;20109;-85
2021/03/19 01:52:30;;;;;;;2.03;1.25;;;4.20;99.90;;;;;;4985618;28;20485;-85
2021/03/19 01:55:33;;;;;;;0.05;0.05;;;4.20;99.90;;;;;;4987671;28;20795;-85
2021/03/19 01:58:36;;;;;;;0.15;0.15;;;4.20;99.90;;;;;;4985431;28;20026;-85
2021/03/19 02:01:39;;;;;;;0.10;0.10;;;4.10;99.90;;;;;;4988393;28;20026;-85
2021/03/19 02:04:42;;;;;;;0.10;0.10;;;4.00;99.90;;;;;;4988827;28;20026;-86
2021/03/19 02:07:45;;;;;;;1.75;1.55;;;4.00;99.90;;;;;;4991505;28;20073;-86
2021/03/19 02:10:48;;;;;;;0.10;0.10;;;3.90;99.90;;;;;;4991785;28;20030;-86
2021/03/19 02:13:51;;;;;;;0.43;0.43;;;3.90;99.90;;;;;;4980538;28;20031;-85
2021/03/19 02:16:55;;;;;;;1.55;1.40;;;3.90;99.90;;;;;;4985870;28;20101;-85
2021/03/19 02:19:58;;;;;;;0.10;0.10;;;3.80;99.90;;;;;;4986209;28;20058;-86
2021/03/19 02:23:01;;;;;;;0.35;0.35;;;3.80;99.90;;;;;;4987470;28;20026;-86
2021/03/19 02:26:04;;;;;;;0.75;0.75;;;3.80;99.90;;;;;;4987772;28;20030;-87
2021/03/19 02:29:08;;;;;;;0.75;0.75;;;3.80;99.90;;;;;;4977323;28;20399;-85
2021/03/19 02:31:48;;;;;;;0.22;0.22;;;3.90;99.90;;;;;;4990227;28;20058;-85
2021/03/19 02:34:14;;;;;;;1.10;0.90;;;3.90;99.90;;;;;;4979580;28;20035;-85
2021/03/19 02:36:40;;;;;;;0.13;0.13;;;3.80;99.90;;;;;;4986438;28;20030;-85
2021/03/19 02:39:06;;;;;;;0.50;0.50;;;3.80;99.90;;;;;;4979661;28;20057;-85
2021/03/19 02:41:32;;;;;;;0.20;0.20;;;3.80;99.90;;;;;;4986244;28;20618;-85
2021/03/19 02:43:57;;;;;;;0.30;0.30;;;3.80;99.90;;;;;;4986850;28;20763;-86
2021/03/19 02:46:23;;;;;;;0.30;0.30;;;3.70;99.90;;;;;;4982714;28;20030;-86
2021/03/19 02:48:49;;;;;;;0.30;0.30;;;3.60;99.90;;;;;;4982237;28;20034;-86
2021/03/19 02:51:15;;;;;;;0.10;0.10;;;3.80;99.90;;;;;;4981596;28;20030;-85
2021/03/19 02:53:40;;;;;;;0.40;0.40;;;3.80;99.90;;;;;;4987989;28;20413;-85
2021/03/19 02:56:10;;;;;;;0.50;0.50;;;3.70;99.90;;;;;;4987552;28;20041;-86
2021/03/19 02:58:37;;;;;;;1.20;0.85;;;3.80;99.90;;;;;;4985707;28;20613;-86
2021/03/19 03:01:05;;;;;;;1.33;0.75;;;3.80;99.90;;;;;;4985069;28;20023;-88
2021/03/19 03:03:31;;;;;;;0.30;0.30;;;3.80;99.90;;;;;;4985528;28;20034;-86
2021/03/19 03:05:57;;;;;;;0.20;0.20;;;3.80;99.90;;;;;;4987587;28;20502;-85
2021/03/19 03:08:23;;;;;;;0.68;0.68;;;3.80;99.90;;;;;;4990748;28;20030;-86
2021/03/19 03:10:52;;;;;;;1.33;1.23;;;3.80;99.90;;;;;;4988192;28;20114;-86
2021/03/19 03:13:19;;;;;;;1.05;0.80;;;3.80;99.90;;;;;;4981745;28;20080;-87
2021/03/19 03:15:45;;;;;;;0.47;0.47;;;3.80;99.90;;;;;;4988033;28;20700;-87
2021/03/19 03:18:13;;;;;;;0.65;0.65;;;3.80;99.90;;;;;;4987841;28;21028;-86
2021/03/19 03:20:46;;;;;;;0.10;0.10;;;3.90;99.90;;;;;;4988609;28;20029;-85
2021/03/19 03:23:12;;;;;;;0.10;0.10;;;3.90;99.90;;;;;;4977012;28;20037;-84
2021/03/19 03:25:38;;;;;;;0.90;0.90;;;3.90;99.90;;;;;;4986604;28;20038;-85
2021/03/19 03:28:05;;;;;;;0.20;0.20;;;4.10;99.90;;;;;;4990883;28;20042;-85
2021/03/19 03:30:33;;;;;;;;;;;4.10;99.90;;;;;;4985084;28;20022;-85
2021/03/19 03:32:59;;;;;;;0.30;0.30;;;4.10;99.90;;;;;;4986465;28;19914;-85
2021/03/19 03:35:26;;;;;;;0.20;0.20;;;4.10;99.90;;;;;;4985534;28;20030;-86
2021/03/19 03:37:54;;;;;;;0.30;0.30;;;4.10;99.90;;;;;;4987032;28;20034;-85
2021/03/19 03:40:25;;;;;;;0.20;0.20;;;4.00;99.90;;;;;;4985997;28;20030;-85
2021/03/19 03:42:51;;;;;;;0.10;0.10;;;4.10;99.90;;;;;;4989840;28;20732;-87
2021/03/19 03:45:17;;;;;;;0.10;0.10;;;4.00;99.90;;;;;;4990803;28;20034;-86
2021/03/19 03:47:44;;;;;;;4.88;1.83;;;4.00;99.90;;;;;;4989823;28;20062;-86
2021/03/19 03:50:13;;;;;;;0.53;0.53;;;4.10;99.90;;;;;;4978870;28;20034;-85
2021/03/19 03:52:39;;;;;;;0.20;0.20;;;4.00;99.90;;;;;;4983598;28;20042;-88
2021/03/19 03:55:07;;;;;;;0.63;0.63;;;4.10;99.90;;;;;;4989763;28;20498;-86
2021/03/19 03:57:33;;;;;;;0.20;0.20;;;4.10;99.90;;;;;;4988079;28;20122;-86
2021/03/19 03:59:59;;;;;;;1.50;0.97;;;4.20;99.90;;;;;;4989690;28;20112;-86
2021/03/19 04:02:29;;;;;;;0.40;0.40;;;4.20;99.90;;;;;;4991722;28;20049;-85
2021/03/19 04:04:55;;;;;;;0.32;0.32;;;4.20;99.90;;;;;;4992719;28;20042;-86
2021/03/19 04:07:22;;;;;;;0.20;0.20;;;4.30;99.90;;;;;;4984616;28;20026;-86
2021/03/19 04:09:50;;;;;;;0.55;0.55;;;4.30;99.90;;;;;;4987094;28;20513;-86
2021/03/19 04:12:16;;;;;;;0.10;0.10;;;4.30;99.90;;;;;;4977327;28;20042;-85
2021/03/19 04:14:42;;;;;;;0.20;0.20;;;4.30;99.90;;;;;;4978028;28;20039;-85
2021/03/19 04:17:10;;;;;;;2.88;0.85;;;4.30;99.90;;;;;;4987294;28;20502;-86
2021/03/19 04:19:37;;;;;;;0.22;0.22;;;4.30;99.90;;;;;;4989990;28;20074;-85
2021/03/19 04:22:04;;;;;;;0.32;0.32;;;4.30;99.90;;;;;;4982388;28;20764;-85
2021/03/19 04:24:30;;;;;;;0.20;0.20;;;4.40;99.90;;;;;;4988873;28;20034;-85
2021/03/19 04:26:56;;;;;;;0.10;0.10;;;4.30;99.90;;;;;;4995578;28;20026;-85
2021/03/19 04:29:22;;;;;;;0.43;0.43;;;4.40;99.90;;;;;;4990585;28;20090;-86
2021/03/19 04:31:48;;;;;;;0.20;0.20;;;4.40;99.90;;;;;;4993293;28;20070;-84
2021/03/19 04:34:14;;;;;;;0.20;0.20;;;4.40;99.90;;;;;;4985484;28;20037;-85
2021/03/19 04:36:51;;;;;;;0.22;0.22;;;4.30;99.90;;;;;;4981425;28;20473;-85
2021/03/19 04:39:21;;;;;;;1.15;1.15;;;4.40;99.90;;;;;;4987729;28;20450;-85
2021/03/19 04:41:50;;;;;;;0.52;0.52;;;4.40;99.90;;;;;;4985617;28;20030;-84
2021/03/19 04:44:16;;;;;;;0.10;0.10;;;4.30;99.90;;;;;;4987439;28;20029;-85
2021/03/19 04:46:42;;;;;;;0.30;0.30;;;4.30;99.90;;;;;;4982765;28;20034;-85
2021/03/19 04:49:08;;;;;;;0.10;0.10;;;4.30;99.90;;;;;;4979546;28;20521;-86
2021/03/19 04:51:34;;;;;;;0.13;0.13;;;4.30;99.90;;;;;;4987326;28;20092;-85
2021/03/19 04:54:00;;;;;;;0.10;0.10;;;4.30;99.90;;;;;;4986812;28;20493;-85
2021/03/19 04:56:26;;;;;;;0.30;0.30;;;4.30;99.90;;;;;;4983432;28;20030;-86
2021/03/19 04:58:52;;;;;;;0.73;0.73;;;4.20;99.90;;;;;;4983050;28;20034;-86
2021/03/19 05:01:19;;;;;;;0.57;0.57;;;4.20;99.90;;;;;;4978961;28;20105;-86
2021/03/19 05:03:45;;;;;;;0.20;0.20;;;4.10;99.90;;;;;;4987100;28;20042;-85
2021/03/19 05:06:11;;;;;;;0.10;0.10;;;4.20;99.90;;;;;;4987332;28;20025;-86
2021/03/19 05:08:37;;;;;;;0.10;0.10;;;4.10;99.90;;;;;;4979633;28;20810;-86
2021/03/19 05:11:03;;;;;;;0.70;0.70;;;4.10;99.90;;;;;;4986959;28;20284;-85
2021/03/19 05:13:28;;;;;;;0.77;0.77;;;4.10;99.90;;;;;;4986138;28;20053;-85
2021/03/19 05:15:54;;;;;;;0.50;0.50;;;4.10;99.90;;;;;;4980487;28;20054;-85
2021/03/19 05:18:20;;;;;;;0.20;0.20;;;4.10;99.90;;;;;;4983024;28;20050;-85
2021/03/19 05:20:46;;;;;;;1.27;0.88;;;4.10;99.90;;;;;;4987447;28;20031;-85
2021/03/19 05:23:28;;;;;;;0.90;0.65;;;4.00;99.90;;;;;;4978423;28;20030;-85
2021/03/19 05:25:54;;;;;;;0.22;0.22;;;4.10;99.90;;;;;;4987030;28;20410;-85
2021/03/19 05:28:20;;;;;;;0.40;0.40;;;4.10;99.90;;;;;;4992212;28;20065;-85
2021/03/19 05:30:47;;;;;;;0.63;0.63;;;4.10;99.90;;;;;;4984992;28;20035;-85
2021/03/19 05:33:13;;;;;;;0.55;0.55;;;4.10;99.90;;;;;;4987591;28;20522;-87
2021/03/19 05:35:39;;;;;;;0.20;0.20;;;4.20;99.90;;;;;;4983230;28;20034;-86
2021/03/19 05:38:05;;;;;;;0.47;0.47;;;4.20;99.90;;;;;;4987813;28;20061;-86
2021/03/19 05:40:43;;;;;;;0.13;0.13;;;4.20;99.90;;;;;;4987683;28;20550;-86
2021/03/19 05:43:21;;;;;;;0.30;0.30;;;4.20;99.90;;;;;;4986979;28;20034;-85
2021/03/19 05:46:11;;;;;;;0.10;0.10;;;4.20;99.90;;;;;;4982756;28;20022;-86
2021/03/19 05:48:58;;;;;;;0.10;0.10;;;4.20;99.90;;;;;;4986212;28;20049;-88
2021/03/19 05:51:29;;;;;;;;;;;4.20;99.90;;;;;;4986061;28;20042;-88
2021/03/19 05:54:15;;;;;;;0.10;0.10;;;4.20;99.90;;;;;;4971858;28;19910;-87
2021/03/19 05:56:43;;;;;;;1.30;0.57;;;4.20;99.90;;;;;;4985797;28;20855;-89
2021/03/19 05:59:09;;;;;;;0.20;0.20;;;4.30;99.90;;;;;;4988523;28;20270;-88
2021/03/19 06:01:37;;;;;;;0.13;0.13;;;4.30;99.90;;;;;;4988302;28;20026;-88
2021/03/19 06:04:04;;;;;;;2.60;1.10;;;4.40;99.90;;;;;;4985593;28;20121;-88
2021/03/19 06:06:56;;;;;;;0.20;0.20;;;4.20;99.90;;;;;;4979274;28;20030;-87
2021/03/19 06:09:41;;;;;;;0.10;0.10;;;4.20;99.90;;;;;;4981878;28;20057;-88
2021/03/19 06:12:10;;;;;;;0.60;0.60;;;4.30;99.90;;;;;;4982399;28;20032;-88
2021/03/19 06:14:56;;;;;;;1.05;1.05;;;4.30;99.90;;;;;;4988101;28;20030;-88
2021/03/19 06:17:44;;;;;;;1.13;1.13;;;4.40;99.90;;;;;;4982939;28;20049;-88
2021/03/19 06:20:13;;;;;;;0.10;0.10;;;4.20;99.90;;;;;;4988903;28;20442;-88
2021/03/19 06:23:13;;;;;;;0.22;0.22;;;4.20;99.90;;;;;;4980725;28;20035;-88
2021/03/19 06:25:42;;;;;;;0.75;0.75;;;4.40;99.90;;;;;;4990311;28;20053;-87
2021/03/19 06:28:35;;;;;;;0.10;0.10;;;4.20;99.90;;;;;;4989269;28;20034;-88
2021/03/19 06:31:30;;;;;;;0.60;0.40;;;4.30;99.90;;;;;;4983459;28;20881;-87
2021/03/19 06:34:05;;;;;;;0.50;0.50;;;4.30;99.90;;;;;;5003391;28;20034;-86
2021/03/19 06:36:32;;;;;;;0.45;0.45;;;4.30;99.90;;;;;;4991268;28;20034;-87
2021/03/19 06:39:24;;;;;;;4.78;4.38;;;4.30;99.90;;;;;;5005536;28;20390;-89
2021/03/19 06:42:27;;;;;;;4.32;2.45;;;4.40;99.90;;;;;;4988096;28;20547;-89
2021/03/19 06:45:23;;;;;;;10.80;3.85;;;4.40;99.90;;;;;;4989157;28;20109;-90
2021/03/19 06:47:55;;;;;;;1.25;1.20;;;4.40;99.90;;;;;;4982420;28;20410;-89
2021/03/19 06:50:24;;;;;;;0.17;0.17;;;4.50;99.90;;;;;;4984008;28;20022;-88
2021/03/19 06:52:52;;;;;;;0.22;0.22;;;4.30;99.90;;;;;;4991635;28;20030;-90
2021/03/19 06:55:41;;;;;;;2.35;1.00;;;4.40;99.90;;;;;;4998307;28;20074;-91
2021/03/19 06:58:08;;;;;;;0.50;0.50;;;4.40;99.90;;;;;;4991091;28;20423;-91
2021/03/19 07:00:42;;;;;;;0.30;0.30;;;4.50;99.90;;;;;;4988553;28;20022;-90
2021/03/19 07:03:27;;;;;;;0.43;0.43;;;4.30;99.90;;;;;;4990847;28;20025;-90
2021/03/19 07:06:12;;;;;;;1.05;1.05;;;4.20;99.90;;;;;;4992197;28;20030;-89
2021/03/19 07:08:46;;;;;;;0.57;0.57;;;4.20;99.90;;;;;;4979128;28;20050;-89
2021/03/19 07:11:43;;;;;;;0.65;0.65;;;4.30;99.90;;;;;;4977449;28;20019;-88
2021/03/19 07:14:46;;;;;;;0.03;0.03;;;4.20;99.90;;;;;;4997098;28;20391;-90
2021/03/19 07:17:41;;;;;;;0.08;0.08;;;4.20;27.10;;;;;;4998730;28;20034;-90
2021/03/19 07:20:38;;;;;;;0.10;0.10;;;4.30;1.00;;;;;;4990784;28;20030;-91
2021/03/19 07:23:15;;;;;;;0.13;0.13;;;4.70;1.00;;;;;;4994834;28;20026;-91
2021/03/19 07:26:18;;;;;;;0.40;0.40;;;4.90;1.00;;;;;;4994482;28;20041;-91
2021/03/19 07:28:47;;;;;;;0.10;0.10;;;4.90;99.90;;;;;;4982933;28;20034;-89
2021/03/19 07:31:35;;;;;;;0.15;0.15;;;4.80;99.90;;;;;;4984725;28;20068;-90
2021/03/19 07:34:25;;;;;;;0.00;0.00;;;4.70;99.90;;;;;;4985021;28;20033;-90
2021/03/19 07:37:18;;;;;;;0.25;0.25;;;4.90;1.00;;;;;;4990159;28;20559;-85
2021/03/19 07:40:13;;;;;;;0.20;0.20;;;5.00;99.90;;;;;;4999455;28;20405;-85
2021/03/19 07:43:17;;;;;;;0.50;0.50;;;4.90;99.90;;;;;;4993120;28;20034;-87
2021/03/19 07:45:58;;;;;;;0.00;0.00;;;5.00;99.90;;;;;;5000820;28;20048;-87
2021/03/19 07:48:37;;;;;;;0.10;0.10;;;5.20;99.90;;;;;;5000030;28;20310;-87
2021/03/19 07:51:10;;;;;;;0.93;0.82;;;5.40;99.90;;;;;;4996904;28;20111;-86
2021/03/19 07:54:18;;;;;;;0.50;0.50;;;5.50;99.90;;;;;;4999093;28;20030;-86
2021/03/19 07:56:55;;;;;;;0.20;0.20;;;5.40;99.90;;;;;;4955829;28;20062;-86
2021/03/19 07:59:28;;;;;;;0.10;0.10;;;5.60;99.90;;;;;;4957135;28;20504;-85
2021/03/19 08:02:12;;;;;;;0.28;0.28;;;6.30;99.90;;;;;;4969779;28;20039;-86
2021/03/19 08:04:54;;;;;;;0.10;0.10;;;6.40;99.90;;;;;;4964364;28;20074;-86
2021/03/19 08:07:33;;;;;;;0.43;0.43;;;7.80;99.90;;;;;;4958629;28;20079;-85
2021/03/19 08:10:24;;;;;;;0.10;0.10;;;10.50;99.90;;;;;;4953441;28;20507;-94
2021/03/19 08:13:08;;;;;;;0.10;0.10;;;12.10;99.90;;;;;;4938662;29;20143;-93
2021/03/19 08:15:44;;;;;;;0.20;0.20;;;9.80;99.90;;;;;;4956725;28;20054;-91
2021/03/19 08:18:23;;;;;;;0.20;0.20;;;7.80;99.90;;;;;;4955697;28;20027;-91
2021/03/19 08:21:06;;;;;;;0.52;0.52;;;8.80;99.90;;;;;;4955473;28;20067;-92
2021/03/19 08:24:00;;;;;;;0.00;0.00;;;7.30;99.90;;;;;;4953690;29;20027;-92
2021/03/19 08:26:49;;;;;;;0.20;0.20;;;7.00;99.90;;;;;;4944499;28;20198;-92
2021/03/19 08:29:35;;;;;;;0.28;0.28;;;6.60;99.90;;;;;;4960051;28;20038;-93
2021/03/19 08:32:33;;;;;;;0.00;0.00;;;6.60;99.90;;;;;;4970466;28;20037;-93
2021/03/19 08:35:26;;;;;;;0.20;0.17;;;6.40;99.90;;;;;;4977864;28;20061;-92
2021/03/19 08:38:28;;;;;;;0.10;0.10;;;6.30;99.90;;;;;;4988630;28;20495;-92
2021/03/19 08:41:18;;;;;;;0.05;0.05;;;6.40;99.90;;;;;;4973391;28;20125;-92
2021/03/19 08:43:52;;;;;;;0.00;0.00;;;6.40;99.90;;;;;;4983210;28;20034;-92
2021/03/19 08:46:23;;;;;;;0.00;0.00;;;6.50;99.90;;;;;;4988517;28;20030;-93
2021/03/19 08:48:54;;;;;;;0.30;0.30;;;6.40;99.90;;;;;;4992499;28;20057;-92
2021/03/19 08:51:33;;;;;;;0.20;0.20;;;6.80;99.90;;;;;;4977108;28;20035;-92
2021/03/19 08:54:14;;;;;;;0.20;0.20;;;6.80;99.90;;;;;;4973244;28;20558;-92
2021/03/19 08:56:44;;;;;;;0.00;0.00;;;7.90;99.90;;;;;;4991936;28;20026;-92
2021/03/19 08:59:11;;;;;;;0.10;0.10;;;7.60;99.90;;;;;;4992151;28;20027;-92
2021/03/19 09:01:56;;;;;;;0.00;0.00;;;7.10;99.90;;;;;;4991821;28;20026;-93
2021/03/19 09:05:10;;;;;;;0.10;0.10;;;7.50;99.90;;;;;;4980679;28;20023;-92
2021/03/19 09:08:00;;;;;;;0.10;0.10;;;7.80;99.90;;;;;;4982824;28;20117;-92
2021/03/19 09:10:26;;;;;;;0.00;0.00;;;7.60;99.90;;;;;;4988828;28;20026;-92
2021/03/19 09:12:55;;;;;;;0.00;0.00;;;8.40;99.90;;;;;;4991795;28;20494;-92
2021/03/19 09:15:21;;;;;;;0.00;0.00;;;8.10;99.90;;;;;;4991461;28;20043;-92
2021/03/19 09:17:48;;;;;;;0.00;0.00;;;8.10;99.90;;;;;;4990971;28;20117;-91
2021/03/19 09:20:39;;;;;;;0.00;0.00;;;8.50;99.90;;;;;;4978913;28;20054;-92
2021/03/19 09:23:08;;;;;;;0.10;0.10;;;9.00;99.90;;;;;;4971308;28;20041;-91
2021/03/19 09:25:51;;;;;;;0.00;0.00;;;9.30;99.90;;;;;;4984894;28;20030;-92
2021/03/19 09:28:17;;;;;;;0.00;0.00;;;11.00;99.90;;;;;;4972249;28;20123;-92
2021/03/19 09:30:56;;;;;;;0.10;0.10;;;10.80;99.90;;;;;;4986486;28;20031;-92
2021/03/19 09:33:43;;;;;;;0.10;0.10;;;10.50;99.90;;;;;;4996197;28;20489;-91
2021/03/19 09:36:51;;;;;;;0.00;0.00;;;13.10;99.90;;;;;;4975003;28;20027;-91
2021/03/19 09:39:55;;;;;;;0.00;0.00;;;10.10;99.90;;;;;;4947609;28;20121;-91
2021/03/19 09:42:21;;;;;;;0.00;0.00;;;8.30;99.90;;;;;;4976554;28;20030;-91
2021/03/19 09:44:59;;;;;;;0.00;0.00;;;7.50;99.90;;;;;;4962396;28;20030;-90
2021/03/19 09:47:37;;;;;;;0.00;0.00;;;7.60;99.90;;;;;;4972412;28;20904;-90
2021/03/19 09:50:18;;;;;;;0.00;0.00;;;7.40;99.90;;;;;;4969538;28;20640;-90
2021/03/19 09:52:57;;;;;;;0.10;0.10;;;7.40;99.90;;;;;;4977365;28;20033;-91
2021/03/19 09:55:36;;;;;;;0.00;0.00;;;7.40;99.90;;;;;;4977087;28;20131;-91
2021/03/19 09:58:31;;;;;;;0.10;0.10;;;8.20;99.90;;;;;;4958328;28;20019;-91
2021/03/19 10:00:59;;;;;;;0.00;0.00;;;7.60;99.90;;;;;;4947633;28;20035;-91
2021/03/19 10:03:25;;;;;;;0.10;0.10;;;7.80;99.90;;;;;;4971426;28;20034;-91
2021/03/19 10:05:51;;;;;;;0.10;0.10;;;8.50;99.90;;;;;;4975773;28;20027;-90
2021/03/19 10:08:28;;;;;;;0.08;0.08;;;11.20;99.90;;;;;;4975916;28;20035;-91
2021/03/19 10:11:09;;;;;;;0.10;0.10;;;12.20;99.90;;;;;;4965831;28;20490;-91
2021/03/19 10:13:35;;;;;;;0.10;0.10;;;13.20;99.90;;;;;;4959805;28;20026;-91
2021/03/19 10:16:03;;;;;;;0.10;0.10;;;10.60;99.90;;;;;;4991664;28;20046;-90
2021/03/19 10:18:43;;;;;;;0.10;0.10;;;12.50;99.90;;;;;;4993492;28;20034;-90
2021/03/19 10:21:20;;;;;;;0.10;0.10;;;13.20;99.90;;;;;;4988758;28;20095;-90
2021/03/19 10:23:54;;;;;;;0.10;0.10;;;14.10;99.90;;;;;;4984886;28;20514;-91
2021/03/19 10:26:26;;;;;;;0.10;0.10;;;13.90;99.90;;;;;;4982446;28;20034;-91
2021/03/19 10:29:13;;;;;;;0.00;0.00;;;14.40;99.90;;;;;;4985973;28;20038;-91
2021/03/19 10:31:51;;;;;;;0.10;0.10;;;14.00;99.90;;;;;;4994311;28;20034;-91
2021/03/19 10:34:21;;;;;;;0.00;0.00;;;11.00;99.90;;;;;;4978397;28;20026;-91
2021/03/19 10:37:06;;;;;;;0.05;0.05;;;10.40;99.90;;;;;;4989040;28;20443;-91
2021/03/19 10:39:56;;;;;;;0.00;0.00;;;9.70;99.90;;;;;;4981384;28;20037;-91
2021/03/19 10:42:38;;;;;;;0.00;0.00;;;13.20;99.90;;;;;;4991060;28;20084;-91
2021/03/19 10:45:13;;;;;;;0.00;0.00;;;14.00;99.90;;;;;;4991045;28;20035;-91
2021/03/19 10:47:47;;;;;;;0.00;0.00;;;9.60;99.90;;;;;;4991030;28;20387;-91
2021/03/19 10:50:31;;;;;;;0.00;0.00;;;8.90;99.90;;;;;;4990956;28;20359;-91
2021/03/19 10:53:07;;;;;;;0.20;0.20;;;8.50;99.90;;;;;;4991422;28;20122;-91
2021/03/19 10:55:37;;;;;;;0.00;0.00;;;8.90;99.90;;;;;;4977237;28;20022;-91
2021/03/19 10:58:22;;;;;;;0.10;0.10;;;9.30;99.90;;;;;;4991509;28;20038;-91
2021/03/19 11:00:50;;;;;;;0.00;0.00;;;9.20;99.90;;;;;;4980519;28;20023;-91
2021/03/19 11:03:33;;;;;;;0.00;0.00;;;9.20;99.90;;;;;;4988788;28;20109;-91
2021/03/19 11:06:05;;;;;;;0.10;0.10;;;9.00;99.90;;;;;;4989689;28;20034;-91
2021/03/19 11:08:31;;;;;;;0.10;0.10;;;13.30;99.90;;;;;;4982513;28;20029;-90
2021/03/19 11:10:57;;;;;;;0.10;0.10;;;11.30;99.90;;;;;;4989022;28;20026;-91
2021/03/19 11:13:26;;;;;;;0.10;0.10;;;10.00;99.90;;;;;;4990158;28;20088;-90
2021/03/19 11:15:55;;;;;;;0.00;0.00;;;9.30;99.90;;;;;;4999947;28;20052;-89
2021/03/19 11:18:24;;;;;;;0.00;0.00;;;9.70;99.90;;;;;;4994513;28;20030;-89
2021/03/19 11:21:07;;;;;;;0.00;0.00;;;9.50;99.90;;;;;;4991686;28;20050;-90
2021/03/19 11:23:37;;;;;;;0.00;0.00;;;9.40;99.90;;;;;;4989957;28;20026;-89
2021/03/19 11:26:18;;;;;;;0.10;0.10;;;8.60;99.90;;;;;;4986939;28;20034;-89
2021/03/19 11:28:45;;;;;;;0.00;0.00;;;8.80;99.90;;;;;;4995371;28;20556;-89
2021/03/19 11:31:14;;;;;;;0.10;0.10;;;8.70;99.90;;;;;;5004548;28;20557;-89
2021/03/19 11:34:05;;;;;;;0.10;0.10;;;8.70;99.90;;;;;;4989810;28;20491;-89
2021/03/19 11:36:54;;;;;;;0.10;0.10;;;8.90;99.90;;;;;;4991045;28;20088;-89
2021/03/19 11:39:40;;;;;;;0.00;0.00;;;8.70;99.90;;;;;;4976046;28;20031;-89
2021/03/19 11:42:17;;;;;;;0.17;0.17;;;9.50;99.90;;;;;;4990145;28;20022;-89
2021/03/19 11:44:46;;;;;;;0.10;0.10;;;8.90;99.90;;;;;;5003222;28;20062;-90
2021/03/19 11:47:19;;;;;;;0.10;0.10;;;8.70;99.90;;;;;;4980876;28;20057;-89
2021/03/19 11:49:46;;;;;;;0.17;0.17;;;8.50;99.90;;;;;;4987405;28;20037;-89
2021/03/19 11:52:14;;;;;;;0.10;0.10;;;8.50;99.90;;;;;;4989510;28;20018;-89
2021/03/19 11:54:41;;;;;;;0.10;0.10;;;8.70;99.90;;;;;;4990062;28;20065;-89
2021/03/19 11:57:08;;;;;;;0.00;0.00;;;9.00;99.90;;;;;;4998775;28;20025;-90
2021/03/19 11:59:34;;;;;;;0.10;0.10;;;9.20;99.90;;;;;;5008079;28;20037;-89
2021/03/19 12:02:05;;;;;;;0.10;0.10;;;10.00;99.90;;;;;;4989470;28;20751;-89
2021/03/19 12:04:31;;;;;;;0.15;0.15;;;10.20;99.90;;;;;;5001968;28;20268;-89
2021/03/19 12:06:57;;;;;;;0.10;0.10;;;10.60;99.90;;;;;;4984488;28;20380;-90
2021/03/19 12:09:24;;;;;;;0.10;0.10;;;10.20;99.90;;;;;;4992024;28;20167;-89
2021/03/19 12:11:50;;;;;;;0.10;0.10;;;9.50;99.90;;;;;;4991942;28;20085;-88
2021/03/19 12:14:22;;;;;;;0.00;0.00;;;9.90;99.90;;;;;;4989795;28;20034;-89
2021/03/19 12:16:48;;;;;;;0.10;0.10;;;10.30;99.90;;;;;;4988287;28;20046;-89
2021/03/19 12:19:15;;;;;;;0.00;0.00;;;10.90;99.90;;;;;;4990260;28;20098;-89
2021/03/19 12:21:42;;;;;;;0.08;0.08;;;9.80;99.90;;;;;;4988669;28;20388;-90
2021/03/19 12:24:08;;;;;;;0.10;0.10;;;9.30;99.90;;;;;;4990232;28;20140;-90
2021/03/19 12:26:34;;;;;;;0.10;0.10;;;9.50;99.90;;;;;;4990366;28;20073;-89
2021/03/19 12:29:00;;;;;;;0.20;0.20;;;9.90;99.90;;;;;;4976865;28;20034;-89
2021/03/19 12:31:26;;;;;;;0.10;0.10;;;10.00;99.90;;;;;;4989054;28;20030;-89
2021/03/19 12:33:52;;;;;;;0.00;0.00;;;9.70;99.90;;;;;;4971689;28;20042;-89
2021/03/19 12:36:17;;;;;;;0.10;0.10;;;9.10;99.90;;;;;;4986159;28;20394;-89
2021/03/19 12:38:43;;;;;;;0.10;0.10;;;10.50;99.90;;;;;;4986203;28;20034;-89
2021/03/19 12:41:09;;;;;;;0.00;0.00;;;10.40;99.90;;;;;;4989675;28;20556;-89
2021/03/19 12:43:35;;;;;;;0.00;0.00;;;9.50;99.90;;;;;;4987713;28;20108;-90
2021/03/19 12:46:02;;;;;;;0.13;0.13;;;8.90;99.90;;;;;;4987464;28;20026;-89
2021/03/19 12:48:28;;;;;;;0.00;0.00;;;8.80;99.90;;;;;;4989143;28;20026;-90
2021/03/19 12:50:55;;;;;;;0.00;0.00;;;8.60;99.90;;;;;;4988821;28;20470;-90
2021/03/19 12:53:23;;;;;;;0.00;0.00;;;8.40;99.90;;;;;;4993835;28;20114;-89
2021/03/19 12:55:49;;;;;;;0.10;0.10;;;8.50;99.90;;;;;;4984108;28;20035;-90
2021/03/19 12:58:16;;;;;;;0.00;0.00;;;9.00;99.90;;;;;;4986099;28;20022;-89
2021/03/19 13:00:42;;;;;;;0.00;0.00;;;9.10;99.90;;;;;;4983368;28;20456;-89
2021/03/19 13:03:09;;;;;;;0.00;0.00;;;8.90;99.90;;;;;;4985256;28;20046;-89
2021/03/19 13:05:37;;;;;;;0.10;0.10;;;9.30;99.90;;;;;;4988219;28;20498;-90
2021/03/19 13:08:04;;;;;;;0.10;0.10;;;9.20;99.90;;;;;;4989031;28;20026;-90
2021/03/19 13:10:34;;;;;;;0.10;0.10;;;9.50;99.90;;;;;;4985453;28;20042;-90
2021/03/19 13:13:00;;;;;;;0.00;0.00;;;9.10;99.90;;;;;;4992859;28;20033;-90
2021/03/19 13:15:29;;;;;;;0.00;0.00;;;9.00;99.90;;;;;;4991313;28;20133;-90
2021/03/19 13:17:59;;;;;;;0.10;0.10;;;9.20;99.90;;;;;;4987701;28;20892;-89
2021/03/19 13:20:26;;;;;;;0.10;0.10;;;9.40;99.90;;;;;;4989311;28;20038;-89
2021/03/19 13:22:52;;;;;;;;;;;9.80;99.90;;;;;;4985589;28;20089;-89
2021/03/19 13:25:31;;;;;;;0.00;0.00;;;9.30;99.90;;;;;;4992715;28;20325;-89
2021/03/19 13:27:58;;;;;;;0.00;0.00;;;9.50;99.90;;;;;;4990060;28;20284;-89
2021/03/19 13:30:27;;;;;;;0.05;0.05;;;9.00;99.90;;;;;;4993644;28;20120;-89
2021/03/19 13:32:53;;;;;;;0.05;0.05;;;9.00;99.90;;;;;;4990024;28;20133;-90
2021/03/19 13:35:22;;;;;;;0.20;0.20;;;9.50;99.90;;;;;;4998532;28;20490;-89